createdAt,value
2022-08-11T00:00:13.341Z,1.90
2022-08-11T00:02:49.018Z,1.58
2022-08-11T00:05:22.453Z,1.50
2022-08-11T00:07:57.303Z,1.60
2022-08-11T00:10:29.935Z,1.50
2022-08-11T00:12:59.748Z,1.98
2022-08-11T00:15:29.456Z,1.77
2022-08-11T00:18:01.178Z,1.75
2022-08-11T00:20:33.052Z,1.50
2022-08-11T00:23:11.783Z,1.70
2022-08-11T00:25:42.655Z,2.00
2022-08-11T00:28:27.068Z,1.70
2022-08-11T00:30:56.239Z,1.50
2022-08-11T00:33:44.796Z,2.25
2022-08-11T00:36:16.751Z,1.50
2022-08-11T00:38:49.333Z,1.60
2022-08-11T00:41:39.368Z,1.73
2022-08-11T00:44:43.470Z,1.75
2022-08-11T00:47:32.111Z,1.90
2022-08-11T00:50:11.537Z,1.70
2022-08-11T00:52:50.742Z,1.77
2022-08-11T00:55:42.413Z,1.63
2022-08-11T00:58:35.946Z,1.77
2022-08-11T01:01:20.908Z,1.60
2022-08-11T01:04:09.698Z,1.73
2022-08-11T01:07:01.251Z,2.05
2022-08-11T01:12:18.951Z,1.75
2022-08-11T01:14:45.699Z,2.00
2022-08-11T01:17:53.466Z,2.00
2022-08-11T01:20:45.825Z,1.83
2022-08-11T01:23:46.721Z,2.00
2022-08-11T01:26:37.869Z,2.00
2022-08-11T01:29:29.837Z,1.88
2022-08-11T01:32:29.294Z,2.00
2022-08-11T01:35:20.713Z,1.77
2022-08-11T01:38:08.567Z,1.60
2022-08-11T01:40:56.216Z,1.85
2022-08-11T01:44:22.817Z,1.77
2022-08-11T01:47:32.851Z,1.85
2022-08-11T01:50:10.637Z,1.65
2022-08-11T01:53:01.031Z,1.88
2022-08-11T01:55:49.375Z,1.70
2022-08-11T01:58:43.253Z,1.95
2022-08-11T02:01:29.076Z,2.03
2022-08-11T02:03:58.879Z,2.15
2022-08-11T02:06:56.126Z,1.85
2022-08-11T02:09:55.717Z,1.88
2022-08-11T02:12:34.453Z,2.20
2022-08-11T02:15:14.631Z,2.28
2022-08-11T02:18:13.466Z,2.00
2022-08-11T02:21:18.624Z,1.80
2022-08-11T02:24:07.218Z,1.52
2022-08-11T02:26:48.788Z,1.45
2022-08-11T02:29:38.426Z,1.52
2022-08-11T02:32:30.680Z,1.40
2022-08-11T02:35:10.112Z,1.20
2022-08-11T02:37:49.099Z,1.20
2022-08-11T02:40:42.091Z,1.40
2022-08-11T02:43:27.633Z,1.60
2022-08-11T02:46:18.192Z,1.55
2022-08-11T02:50:07.196Z,1.23
2022-08-11T02:53:06.615Z,1.30
2022-08-11T02:55:57.015Z,0.90
2022-08-11T02:59:24.831Z,1.20
2022-08-11T03:02:05.393Z,2.00
2022-08-11T03:04:57.521Z,1.33
2022-08-11T03:08:01.119Z,1.10
2022-08-11T03:11:11.929Z,1.20
2022-08-11T03:14:18.136Z,1.30
2022-08-11T03:16:55.588Z,1.15
2022-08-11T03:19:41.066Z,1.38
2022-08-11T03:22:42.843Z,1.17
2022-08-11T03:27:46.044Z,1.33
2022-08-11T03:30:17.844Z,1.00
2022-08-11T03:33:24.494Z,1.13
2022-08-11T03:36:18.022Z,1.00
2022-08-11T03:39:08.555Z,1.23
2022-08-11T03:42:01.395Z,1.25
2022-08-11T03:44:48.275Z,1.38
2022-08-11T03:47:55.257Z,0.90
2022-08-11T03:50:24.177Z,1.10
2022-08-11T03:53:28.286Z,1.02
2022-08-11T03:56:16.304Z,1.10
2022-08-11T03:58:54.984Z,0.93
2022-08-11T04:01:55.179Z,0.93
2022-08-11T04:04:45.158Z,0.90
2022-08-11T04:07:44.520Z,1.00
2022-08-11T04:10:36.154Z,1.02
2022-08-11T04:16:11.251Z,1.30
2022-08-11T04:19:08.965Z,1.20
2022-08-11T04:21:35.694Z,1.00
2022-08-11T04:24:36.542Z,0.90
2022-08-11T04:27:17.368Z,1.00
2022-08-11T04:30:17.309Z,1.13
2022-08-11T04:32:59.290Z,1.05
2022-08-11T04:36:14.960Z,1.30
2022-08-11T04:39:20.331Z,1.00
2022-08-11T04:42:33.460Z,1.05
2022-08-11T04:45:05.831Z,1.65
2022-08-11T04:48:41.862Z,1.77
2022-08-11T04:52:03.667Z,1.35
2022-08-11T04:55:22.732Z,1.40
2022-08-11T04:58:45.411Z,1.10
2022-08-11T05:01:49.097Z,1.30
2022-08-11T05:04:43.378Z,1.20
2022-08-11T05:07:30.953Z,1.02
2022-08-11T05:10:15.852Z,1.20
2022-08-11T05:12:51.305Z,0.90
2022-08-11T05:15:53.418Z,1.50
2022-08-11T05:18:42.781Z,1.40
2022-08-11T05:21:31.065Z,1.30
2022-08-11T05:24:35.752Z,1.30
2022-08-11T05:27:24.596Z,1.23
2022-08-11T05:30:32.222Z,1.02
2022-08-11T05:33:33.106Z,0.85
2022-08-11T05:36:12.953Z,1.17
2022-08-11T05:38:58.635Z,1.08
2022-08-11T05:41:47.687Z,0.82
2022-08-11T05:44:39.208Z,1.42
2022-08-11T05:47:25.252Z,1.02
2022-08-11T05:50:13.728Z,1.00
2022-08-11T05:53:05.120Z,0.95
2022-08-11T05:56:03.193Z,1.17
2022-08-11T05:58:41.722Z,0.75
2022-08-11T06:01:15.277Z,0.90
2022-08-11T06:04:04.018Z,0.80
2022-08-11T06:06:31.409Z,0.90
2022-08-11T06:08:59.260Z,1.00
2022-08-11T06:11:43.858Z,1.00
2022-08-11T06:14:13.517Z,1.00
2022-08-11T06:16:42.780Z,1.05
2022-08-11T06:19:10.381Z,1.27
2022-08-11T06:21:38.257Z,0.90
2022-08-11T06:24:12.514Z,1.17
2022-08-11T06:27:01.533Z,1.02
2022-08-11T06:29:38.292Z,1.10
2022-08-11T06:32:15.716Z,1.25
2022-08-11T06:34:42.879Z,0.88
2022-08-11T06:37:58.710Z,1.38
2022-08-11T06:40:37.586Z,0.90
2022-08-11T06:43:18.790Z,1.10
2022-08-11T06:46:03.867Z,1.10
2022-08-11T06:48:33.791Z,1.05
2022-08-11T06:51:12.046Z,0.80
2022-08-11T06:54:03.134Z,0.88
2022-08-11T06:57:28.410Z,1.00
2022-08-11T07:00:01.854Z,1.00
2022-08-11T07:03:00.944Z,1.15
2022-08-11T07:05:29.849Z,0.77
2022-08-11T07:08:46.335Z,0.80
2022-08-11T07:11:43.562Z,0.82
2022-08-11T07:14:33.875Z,0.90
2022-08-11T07:17:04.486Z,1.10
2022-08-11T07:19:50.427Z,0.90
2022-08-11T07:22:41.453Z,1.02
2022-08-11T07:25:32.937Z,1.00
2022-08-11T07:28:40.829Z,1.20
2022-08-11T07:31:14.623Z,1.08
2022-08-11T07:34:07.815Z,0.85
2022-08-11T07:36:42.812Z,1.25
2022-08-11T07:39:17.907Z,0.85
2022-08-11T07:41:47.128Z,0.77
2022-08-11T07:44:16.966Z,0.80
2022-08-11T07:47:04.866Z,0.90
2022-08-11T07:49:54.098Z,1.00
2022-08-11T07:52:30.657Z,0.90
2022-08-11T07:55:04.144Z,0.80
2022-08-11T07:58:16.640Z,0.85
2022-08-11T08:01:01.694Z,1.00
2022-08-11T08:03:54.121Z,1.20
2022-08-11T08:06:41.565Z,1.05
2022-08-11T08:09:27.826Z,1.20
2022-08-11T08:12:15.152Z,0.90
2022-08-11T08:15:01.166Z,1.10
2022-08-11T08:18:09.248Z,1.02
2022-08-11T08:20:39.350Z,0.90
2022-08-11T08:23:07.283Z,1.42
2022-08-11T08:25:38.167Z,0.90
2022-08-11T08:28:14.012Z,0.73
2022-08-11T08:30:47.522Z,1.30
2022-08-11T08:33:25.596Z,1.00
2022-08-11T08:36:15.028Z,1.10
2022-08-11T08:38:53.104Z,0.90
2022-08-11T08:41:28.122Z,1.13
2022-08-11T08:44:15.200Z,1.20
2022-08-11T08:46:49.634Z,0.90
2022-08-11T08:49:25.365Z,0.90
2022-08-11T08:52:26.056Z,0.95
2022-08-11T08:54:48.645Z,1.27
2022-08-11T08:57:17.521Z,1.30
2022-08-11T08:59:48.756Z,0.80
2022-08-11T09:02:34.029Z,3.40
2022-08-11T09:05:11.328Z,3.28
2022-08-11T09:07:40.768Z,0.93
2022-08-11T09:10:10.935Z,1.20
2022-08-11T09:12:40.719Z,1.10
2022-08-11T09:15:10.446Z,1.13
2022-08-11T09:17:44.753Z,0.90
2022-08-11T09:20:19.499Z,1.02
2022-08-11T09:26:17.664Z,0.90
2022-08-11T09:28:45.895Z,1.10
2022-08-11T09:31:14.361Z,0.80
2022-08-11T09:33:42.857Z,0.70
2022-08-11T09:36:30.883Z,1.00
2022-08-11T09:39:16.838Z,1.00
2022-08-11T09:42:23.834Z,0.90
2022-08-11T09:44:48.758Z,0.90
2022-08-11T09:47:23.518Z,0.80
2022-08-11T09:50:02.237Z,0.90
2022-08-11T09:52:32.951Z,0.75
2022-08-11T09:55:01.132Z,1.15
2022-08-11T09:57:46.554Z,0.90
2022-08-11T10:00:15.337Z,1.17
2022-08-11T10:02:49.229Z,0.75
2022-08-11T10:05:37.980Z,0.90
2022-08-11T10:08:07.263Z,0.85
2022-08-11T10:10:39.204Z,1.00
2022-08-11T10:14:04.812Z,1.10
2022-08-11T10:16:15.379Z,1.10
2022-08-11T10:18:52.527Z,0.80
2022-08-11T10:21:28.484Z,1.20
2022-08-11T10:24:17.043Z,1.00
2022-08-11T10:26:54.936Z,0.90
2022-08-11T10:29:56.010Z,1.05
2022-08-11T10:32:58.967Z,1.00
2022-08-11T10:35:29.546Z,0.95
2022-08-11T10:38:07.700Z,1.00
2022-08-11T10:40:39.691Z,1.15
2022-08-11T10:43:14.263Z,1.33
2022-08-11T10:46:05.454Z,1.00
2022-08-11T10:48:38.971Z,0.98
2022-08-11T10:51:50.053Z,0.90
2022-08-11T10:54:24.263Z,1.10
2022-08-11T10:57:11.685Z,1.20
2022-08-11T10:59:38.664Z,0.77
2022-08-11T11:02:05.941Z,1.00
2022-08-11T11:05:24.953Z,1.20
2022-08-11T11:08:03.244Z,1.02
2022-08-11T11:10:31.731Z,1.10
2022-08-11T11:13:18.041Z,1.13
2022-08-11T11:16:05.156Z,0.98
2022-08-11T11:18:37.430Z,1.10
2022-08-11T11:21:18.561Z,0.85
2022-08-11T11:24:13.039Z,0.70
2022-08-11T11:27:21.966Z,0.82
2022-08-11T11:30:05.406Z,1.05
2022-08-11T11:32:35.301Z,0.80
2022-08-11T11:35:38.720Z,1.03
2022-08-11T11:38:13.959Z,0.82
2022-08-11T11:40:42.377Z,1.17
2022-08-11T11:43:09.670Z,1.00
2022-08-11T11:45:37.104Z,1.20
2022-08-11T11:48:05.104Z,1.33
2022-08-11T11:50:35.541Z,1.20
2022-08-11T11:53:05.597Z,1.15
2022-08-11T11:55:33.129Z,1.10
2022-08-11T11:58:20.242Z,1.13
2022-08-11T12:01:08.288Z,1.00
2022-08-11T12:03:36.073Z,1.48
2022-08-11T12:06:04.079Z,1.30
2022-08-11T12:08:31.873Z,1.67
2022-08-11T12:11:20.659Z,1.23
2022-08-11T12:13:51.012Z,1.20
2022-08-11T12:16:35.813Z,1.02
2022-08-11T12:19:11.746Z,1.10
2022-08-11T12:22:01.027Z,1.02
2022-08-11T12:24:48.394Z,1.27
2022-08-11T12:27:24.159Z,1.10
2022-08-11T12:29:56.206Z,1.23
2022-08-11T12:32:29.014Z,1.30
2022-08-11T12:34:57.238Z,1.25
2022-08-11T12:37:32.709Z,1.20
2022-08-11T12:40:43.030Z,1.13
2022-08-11T12:43:37.372Z,1.20
2022-08-11T12:46:38.339Z,1.10
2022-08-11T12:49:33.110Z,1.52
2022-08-11T12:52:14.616Z,1.58
2022-08-11T12:54:57.578Z,1.30
2022-08-11T12:58:00.679Z,1.42
2022-08-11T13:00:48.904Z,1.42
2022-08-11T13:03:37.140Z,1.38
2022-08-11T13:06:05.716Z,1.08
2022-08-11T13:08:37.887Z,1.33
2022-08-11T13:11:24.235Z,1.63
2022-08-11T13:13:57.557Z,1.20
2022-08-11T13:16:55.760Z,1.33
2022-08-11T13:19:24.056Z,1.20
2022-08-11T13:21:52.903Z,1.20
2022-08-11T13:24:21.634Z,1.63
2022-08-11T13:26:50.864Z,1.45
2022-08-11T13:29:26.588Z,1.30
2022-08-11T13:31:56.555Z,1.58
2022-08-11T13:34:25.498Z,1.30
2022-08-11T13:36:59.492Z,1.30
2022-08-11T13:39:29.642Z,1.40
2022-08-11T13:41:59.555Z,1.38
2022-08-11T13:44:29.661Z,1.27
2022-08-11T13:47:01.235Z,1.73
2022-08-11T13:49:29.613Z,1.40
2022-08-11T13:51:57.304Z,1.55
2022-08-11T13:54:38.497Z,1.52
2022-08-11T13:57:09.203Z,1.33
2022-08-11T13:59:43.990Z,1.42
2022-08-11T14:02:29.436Z,1.30
2022-08-11T14:05:10.193Z,1.92
2022-08-11T14:08:00.186Z,1.40
2022-08-11T14:10:32.877Z,1.55
2022-08-11T14:13:27.286Z,1.40
2022-08-11T14:15:57.328Z,1.55
2022-08-11T14:18:28.712Z,1.47
2022-08-11T14:21:16.930Z,1.48
2022-08-11T14:23:47.562Z,1.52
2022-08-11T14:26:29.210Z,1.55
2022-08-11T14:29:02.909Z,1.30
2022-08-11T14:31:32.064Z,1.27
2022-08-11T14:34:03.686Z,1.55
2022-08-11T14:36:38.203Z,1.20
2022-08-11T14:39:14.484Z,1.50
2022-08-11T14:42:11.672Z,1.70
2022-08-11T14:45:03.984Z,1.55
2022-08-11T14:47:34.211Z,1.40
2022-08-11T14:50:11.724Z,1.80
2022-08-11T14:53:00.713Z,1.48
2022-08-11T14:55:53.383Z,1.60
2022-08-11T14:58:23.302Z,1.40
2022-08-11T15:01:02.823Z,1.70
2022-08-11T15:03:33.725Z,1.30
2022-08-11T15:06:02.496Z,1.50
2022-08-11T15:08:54.276Z,1.38
2022-08-11T15:11:44.488Z,3.00
2022-08-11T15:14:13.637Z,1.40
2022-08-11T15:17:03.589Z,1.48
2022-08-11T15:19:40.465Z,1.20
2022-08-11T15:22:28.405Z,1.45
2022-08-11T15:24:57.527Z,1.45
2022-08-11T15:27:45.920Z,1.60
2022-08-11T15:30:33.209Z,1.35
2022-08-11T15:33:23.949Z,1.27
2022-08-11T15:36:11.308Z,1.80
2022-08-11T15:38:46.855Z,1.58
2022-08-11T15:41:36.321Z,1.60
2022-08-11T15:44:51.220Z,1.35
2022-08-11T15:47:17.855Z,1.08
2022-08-11T15:50:11.925Z,1.55
2022-08-11T15:52:40.507Z,1.40
2022-08-11T15:55:09.196Z,1.48
2022-08-11T15:57:57.527Z,1.45
2022-08-11T16:00:44.464Z,1.25
2022-08-11T16:04:06.029Z,1.65
2022-08-11T16:06:22.492Z,1.45
2022-08-11T16:08:52.670Z,1.60
2022-08-11T16:11:21.402Z,1.75
2022-08-11T16:14:08.041Z,1.38
2022-08-11T16:16:36.366Z,1.77
2022-08-11T16:19:04.773Z,1.40
2022-08-11T16:21:36.488Z,1.27
2022-08-11T16:25:57.712Z,1.17
2022-08-11T16:27:09.236Z,1.40
2022-08-11T16:29:46.511Z,1.50
2022-08-11T16:32:21.748Z,1.70
2022-08-11T16:35:13.540Z,1.50
2022-08-11T16:38:00.477Z,1.40
2022-08-11T16:40:29.478Z,1.45
2022-08-11T16:43:16.412Z,1.25
2022-08-11T16:46:02.698Z,1.83
2022-08-11T16:48:35.782Z,1.13
2022-08-11T16:51:10.409Z,1.50
2022-08-11T16:53:59.542Z,1.27
2022-08-11T16:56:41.420Z,1.60
2022-08-11T16:59:16.359Z,1.52
2022-08-11T17:01:53.269Z,1.23
2022-08-11T17:04:51.153Z,1.30
2022-08-11T17:07:41.581Z,1.30
2022-08-11T17:10:51.298Z,1.40
2022-08-11T17:13:25.692Z,1.23
2022-08-11T17:16:09.478Z,1.38
2022-08-11T17:18:59.550Z,1.25
2022-08-11T17:21:37.302Z,1.00
2022-08-11T17:24:09.471Z,1.10
2022-08-11T17:26:55.672Z,1.20
2022-08-11T17:29:53.497Z,0.95
2022-08-11T17:33:03.952Z,1.30
2022-08-11T17:35:41.110Z,1.48
2022-08-11T17:38:20.552Z,0.90
2022-08-11T17:41:22.960Z,1.40
2022-08-11T17:44:11.006Z,1.10
2022-08-11T17:47:02.281Z,1.17
2022-08-11T17:49:37.169Z,1.42
2022-08-11T17:52:25.158Z,1.30
2022-08-11T17:55:13.377Z,0.88
2022-08-11T17:57:59.921Z,1.10
2022-08-11T18:00:26.710Z,1.15
2022-08-11T18:03:13.872Z,1.20
2022-08-11T18:05:44.489Z,1.00
2022-08-11T18:08:31.935Z,1.55
2022-08-11T18:12:06.511Z,1.42
2022-08-11T18:14:26.361Z,1.70
2022-08-11T18:17:11.931Z,2.53
2022-08-11T18:19:57.470Z,1.50
2022-08-11T18:22:53.425Z,1.40
2022-08-11T18:26:01.054Z,0.95
2022-08-11T18:28:51.311Z,1.30
2022-08-11T18:31:38.662Z,1.08
2022-08-11T18:34:28.594Z,1.02
2022-08-11T18:37:29.070Z,1.00
2022-08-11T18:40:29.492Z,1.58
2022-08-11T18:43:18.875Z,1.30
2022-08-11T18:46:07.874Z,1.10
2022-08-11T18:48:56.173Z,0.98
2022-08-11T18:51:43.229Z,1.20
2022-08-11T18:54:31.332Z,1.40
2022-08-11T18:57:20.816Z,2.50
2022-08-11T19:00:08.350Z,1.95
2022-08-11T19:02:56.658Z,2.28
2022-08-11T19:06:32.205Z,1.35
2022-08-11T19:08:56.388Z,1.40
2022-08-11T19:11:43.872Z,1.58
2022-08-11T19:14:31.300Z,1.30
2022-08-11T19:17:43.755Z,1.70
2022-08-11T19:20:27.985Z,1.30
2022-08-11T19:23:15.350Z,1.52
2022-08-11T19:26:03.533Z,1.45
2022-08-11T19:28:49.813Z,1.70
2022-08-11T19:31:37.189Z,1.10
2022-08-11T19:34:25.371Z,1.17
2022-08-11T19:37:12.457Z,1.25
2022-08-11T19:40:00.749Z,1.25
2022-08-11T19:42:48.092Z,1.45
2022-08-11T19:45:34.676Z,1.20
2022-08-11T19:48:31.880Z,1.55
2022-08-11T19:51:19.351Z,1.17
2022-08-11T19:54:06.948Z,1.20
2022-08-11T19:56:53.494Z,1.10
2022-08-11T19:59:41.418Z,1.33
2022-08-11T20:02:27.441Z,1.65
2022-08-11T20:05:12.784Z,1.40
2022-08-11T20:07:58.844Z,1.20
2022-08-11T20:10:45.262Z,1.20
2022-08-11T20:13:32.300Z,1.20
2022-08-11T20:16:19.779Z,1.30
2022-08-11T20:19:06.656Z,1.25
2022-08-11T20:21:53.695Z,1.30
2022-08-11T20:24:40.467Z,1.45
2022-08-11T20:27:28.084Z,1.27
2022-08-11T20:30:15.439Z,1.20
2022-08-11T20:33:02.541Z,1.38
2022-08-11T20:35:49.805Z,1.10
2022-08-11T20:38:35.878Z,1.17
2022-08-11T20:41:22.927Z,1.40
2022-08-11T20:44:09.686Z,1.27
2022-08-11T20:46:57.435Z,1.25
2022-08-11T20:52:51.720Z,1.27
2022-08-11T20:55:51.425Z,1.30
2022-08-11T21:01:45.459Z,1.55
2022-08-11T21:04:32.552Z,1.30
2022-08-11T21:07:39.452Z,1.25
2022-08-11T21:10:29.206Z,1.55
2022-08-11T21:13:18.012Z,1.23
2022-08-11T21:16:26.558Z,1.10
2022-08-11T21:19:59.629Z,1.17
2022-08-11T21:22:38.611Z,1.10
2022-08-11T21:25:32.131Z,1.17
2022-08-11T21:28:21.979Z,1.67
2022-08-11T21:31:09.279Z,1.63
2022-08-11T21:33:55.827Z,2.72
2022-08-11T21:36:42.202Z,2.33
2022-08-11T21:39:32.061Z,1.92
2022-08-11T21:42:18.374Z,1.52
2022-08-11T21:45:05.792Z,1.80
2022-08-11T21:48:00.860Z,1.83
2022-08-11T21:50:47.012Z,2.10
2022-08-11T21:53:33.514Z,1.70
2022-08-11T21:56:20.501Z,2.88
2022-08-11T21:59:07.651Z,2.28
2022-08-11T22:01:53.804Z,2.47
2022-08-11T22:04:39.503Z,2.35
2022-08-11T22:07:25.721Z,2.25
2022-08-11T22:10:27.403Z,2.63
2022-08-11T22:13:16.613Z,2.60
2022-08-11T22:16:02.037Z,3.00
2022-08-11T22:18:47.689Z,3.00
2022-08-11T22:22:01.850Z,3.17
2022-08-11T22:24:43.727Z,2.75
2022-08-11T22:27:30.437Z,2.67
2022-08-11T22:30:15.632Z,2.72
2022-08-11T22:33:02.171Z,2.83
2022-08-11T22:35:50.666Z,2.72
2022-08-11T22:38:37.489Z,3.17
2022-08-11T22:41:22.970Z,3.33
2022-08-11T22:44:08.468Z,3.17
2022-08-11T22:46:54.657Z,3.22
2022-08-11T22:49:57.125Z,3.47
2022-08-11T22:52:44.390Z,2.83
2022-08-11T22:55:30.453Z,2.95
2022-08-11T22:58:16.519Z,2.70
2022-08-11T23:01:02.703Z,2.83
2022-08-11T23:03:50.060Z,3.30
2022-08-11T23:06:38.107Z,3.03
2022-08-11T23:09:24.907Z,3.08
2022-08-11T23:12:11.797Z,3.40
2022-08-11T23:14:59.313Z,2.72
2022-08-11T23:17:46.328Z,3.17
2022-08-11T23:20:38.849Z,3.30
2022-08-11T23:23:33.683Z,3.05
2022-08-11T23:26:19.828Z,3.00
2022-08-11T23:29:06.052Z,3.10
2022-08-11T23:31:54.851Z,3.13
2022-08-11T23:35:37.315Z,3.15
2022-08-11T23:37:53.764Z,3.00
2022-08-11T23:40:39.359Z,3.20
2022-08-11T23:43:25.014Z,2.78
2022-08-11T23:46:10.494Z,2.70
2022-08-11T23:48:57.583Z,2.80
2022-08-11T23:51:46.054Z,3.35
2022-08-11T23:54:37.187Z,2.58
2022-08-11T23:57:23.342Z,2.80
